sensor_id;sensor_type;location;lat;lon;timestamp;P1;durP1;ratioP1;P2;durP2;ratioP2
3491;SDS011;1760;52.480;13.422;2024-02-26T00:00:09;9.10;;;7.60;;
3491;SDS011;1760;52.480;13.422;2024-02-26T00:05:47;12.53;;;7.33;;
3491;SDS011;1760;52.480;13.422;2024-02-26T00:08:14;13.57;;;8.37;;
3491;SDS011;1760;52.480;13.422;2024-02-26T00:10:41;13.50;;;7.53;;
3491;SDS011;1760;52.480;13.422;2024-02-26T00:13:08;11.27;;;7.93;;
3491;SDS011;1760;52.480;13.422;2024-02-26T00:15:36;12.07;;;8.53;;
3491;SDS011;1760;52.480;13.422;2024-02-26T00:18:03;12.93;;;7.23;;
3491;SDS011;1760;52.480;13.422;2024-02-26T00:20:30;9.43;;;7.30;;
3491;SDS011;1760;52.480;13.422;2024-02-26T00:22:57;9.87;;;7.60;;
3491;SDS011;1760;52.480;13.422;2024-02-26T00:25:24;10.53;;;7.03;;
3491;SDS011;1760;52.480;13.422;2024-02-26T00:27:51;13.73;;;7.10;;
3491;SDS011;1760;52.480;13.422;2024-02-26T00:30:18;10.17;;;7.40;;
3491;SDS011;1760;52.480;13.422;2024-02-26T00:32:46;8.13;;;6.23;;
3491;SDS011;1760;52.480;13.422;2024-02-26T00:35:16;12.70;;;7.13;;
3491;SDS011;1760;52.480;13.422;2024-02-26T00:37:45;9.07;;;6.47;;
3491;SDS011;1760;52.480;13.422;2024-02-26T00:40:12;11.63;;;7.93;;
3491;SDS011;1760;52.480;13.422;2024-02-26T00:42:39;9.53;;;7.00;;
3491;SDS011;1760;52.480;13.422;2024-02-26T00:45:10;10.83;;;6.50;;
3491;SDS011;1760;52.480;13.422;2024-02-26T00:47:37;9.57;;;6.73;;
3491;SDS011;1760;52.480;13.422;2024-02-26T00:50:07;7.40;;;5.90;;
3491;SDS011;1760;52.480;13.422;2024-02-26T00:52:35;10.00;;;5.83;;
3491;SDS011;1760;52.480;13.422;2024-02-26T00:55:02;11.17;;;6.27;;
3491;SDS011;1760;52.480;13.422;2024-02-26T00:57:29;6.67;;;5.63;;
3491;SDS011;1760;52.480;13.422;2024-02-26T00:59:56;12.13;;;6.63;;
3491;SDS011;1760;52.480;13.422;2024-02-26T01:02:24;12.17;;;6.33;;
3491;SDS011;1760;52.480;13.422;2024-02-26T01:04:51;16.63;;;6.60;;
3491;SDS011;1760;52.480;13.422;2024-02-26T01:07:19;10.63;;;6.63;;
3491;SDS011;1760;52.480;13.422;2024-02-26T01:09:46;10.13;;;5.23;;
3491;SDS011;1760;52.480;13.422;2024-02-26T01:12:13;9.20;;;5.80;;
3491;SDS011;1760;52.480;13.422;2024-02-26T01:14:40;6.87;;;5.30;;
3491;SDS011;1760;52.480;13.422;2024-02-26T01:17:07;9.23;;;6.33;;
3491;SDS011;1760;52.480;13.422;2024-02-26T01:19:34;7.43;;;5.90;;
3491;SDS011;1760;52.480;13.422;2024-02-26T01:22:01;7.03;;;6.33;;
3491;SDS011;1760;52.480;13.422;2024-02-26T01:24:30;12.40;;;5.70;;
3491;SDS011;1760;52.480;13.422;2024-02-26T01:26:58;6.97;;;5.50;;
3491;SDS011;1760;52.480;13.422;2024-02-26T01:29:25;11.77;;;6.60;;
3491;SDS011;1760;52.480;13.422;2024-02-26T01:31:52;12.67;;;5.60;;
3491;SDS011;1760;52.480;13.422;2024-02-26T01:34:22;9.30;;;5.43;;
3491;SDS011;1760;52.480;13.422;2024-02-26T01:36:49;10.67;;;6.60;;
3491;SDS011;1760;52.480;13.422;2024-02-26T01:39:15;10.07;;;6.83;;
3491;SDS011;1760;52.480;13.422;2024-02-26T01:41:44;13.20;;;6.73;;
3491;SDS011;1760;52.480;13.422;2024-02-26T01:44:11;9.83;;;6.00;;
3491;SDS011;1760;52.480;13.422;2024-02-26T01:46:39;11.60;;;6.93;;
3491;SDS011;1760;52.480;13.422;2024-02-26T01:49:06;9.53;;;7.37;;
3491;SDS011;1760;52.480;13.422;2024-02-26T01:51:35;8.23;;;5.50;;
3491;SDS011;1760;52.480;13.422;2024-02-26T01:54:02;11.43;;;6.90;;
3491;SDS011;1760;52.480;13.422;2024-02-26T01:56:30;7.27;;;5.53;;
3491;SDS011;1760;52.480;13.422;2024-02-26T01:58:59;8.63;;;5.20;;
3491;SDS011;1760;52.480;13.422;2024-02-26T02:01:26;8.30;;;6.13;;
3491;SDS011;1760;52.480;13.422;2024-02-26T02:03:54;11.20;;;7.77;;
3491;SDS011;1760;52.480;13.422;2024-02-26T02:06:22;10.47;;;5.90;;
3491;SDS011;1760;52.480;13.422;2024-02-26T02:08:49;8.80;;;5.70;;
3491;SDS011;1760;52.480;13.422;2024-02-26T02:11:16;11.70;;;7.50;;
3491;SDS011;1760;52.480;13.422;2024-02-26T02:13:43;9.63;;;5.37;;
3491;SDS011;1760;52.480;13.422;2024-02-26T02:16:11;5.60;;;4.17;;
3491;SDS011;1760;52.480;13.422;2024-02-26T02:18:39;7.37;;;4.90;;
3491;SDS011;1760;52.480;13.422;2024-02-26T02:21:07;6.87;;;4.60;;
3491;SDS011;1760;52.480;13.422;2024-02-26T02:23:34;4.47;;;4.07;;
3491;SDS011;1760;52.480;13.422;2024-02-26T02:26:01;5.70;;;3.97;;
3491;SDS011;1760;52.480;13.422;2024-02-26T02:28:28;5.57;;;4.30;;
3491;SDS011;1760;52.480;13.422;2024-02-26T02:30:55;11.83;;;5.10;;
3491;SDS011;1760;52.480;13.422;2024-02-26T02:33:24;6.37;;;5.23;;
3491;SDS011;1760;52.480;13.422;2024-02-26T02:35:52;7.73;;;4.20;;
3491;SDS011;1760;52.480;13.422;2024-02-26T02:38:21;5.90;;;4.07;;
3491;SDS011;1760;52.480;13.422;2024-02-26T02:40:50;6.50;;;4.90;;
3491;SDS011;1760;52.480;13.422;2024-02-26T02:43:17;5.17;;;3.90;;
3491;SDS011;1760;52.480;13.422;2024-02-26T02:45:44;9.03;;;4.60;;
3491;SDS011;1760;52.480;13.422;2024-02-26T02:48:11;8.07;;;4.10;;
3491;SDS011;1760;52.480;13.422;2024-02-26T02:50:39;5.23;;;4.13;;
3491;SDS011;1760;52.480;13.422;2024-02-26T02:53:06;4.80;;;4.30;;
3491;SDS011;1760;52.480;13.422;2024-02-26T02:55:34;7.73;;;4.50;;
3491;SDS011;1760;52.480;13.422;2024-02-26T02:58:01;4.83;;;4.10;;
3491;SDS011;1760;52.480;13.422;2024-02-26T03:00:27;4.40;;;3.97;;
3491;SDS011;1760;52.480;13.422;2024-02-26T03:02:54;4.10;;;3.70;;
3491;SDS011;1760;52.480;13.422;2024-02-26T03:05:21;8.33;;;4.10;;
3491;SDS011;1760;52.480;13.422;2024-02-26T03:07:48;5.63;;;4.53;;
3491;SDS011;1760;52.480;13.422;2024-02-26T03:10:15;9.23;;;4.23;;
3491;SDS011;1760;52.480;13.422;2024-02-26T03:12:43;6.20;;;4.17;;
3491;SDS011;1760;52.480;13.422;2024-02-26T03:15:10;8.50;;;4.10;;
3491;SDS011;1760;52.480;13.422;2024-02-26T03:17:37;5.40;;;3.83;;
3491;SDS011;1760;52.480;13.422;2024-02-26T03:20:05;4.63;;;4.13;;
3491;SDS011;1760;52.480;13.422;2024-02-26T03:22:34;8.20;;;5.00;;
3491;SDS011;1760;52.480;13.422;2024-02-26T03:25:01;5.97;;;4.13;;
3491;SDS011;1760;52.480;13.422;2024-02-26T03:27:28;6.50;;;4.93;;
3491;SDS011;1760;52.480;13.422;2024-02-26T03:29:56;5.87;;;4.50;;
3491;SDS011;1760;52.480;13.422;2024-02-26T03:32:23;5.70;;;3.70;;
3491;SDS011;1760;52.480;13.422;2024-02-26T03:34:50;8.40;;;5.23;;
3491;SDS011;1760;52.480;13.422;2024-02-26T03:37:19;5.23;;;4.03;;
3491;SDS011;1760;52.480;13.422;2024-02-26T03:39:46;5.97;;;4.53;;
3491;SDS011;1760;52.480;13.422;2024-02-26T03:42:13;5.97;;;4.20;;
3491;SDS011;1760;52.480;13.422;2024-02-26T03:44:41;7.57;;;5.60;;
3491;SDS011;1760;52.480;13.422;2024-02-26T03:47:09;7.43;;;4.83;;
3491;SDS011;1760;52.480;13.422;2024-02-26T03:49:36;4.73;;;3.90;;
3491;SDS011;1760;52.480;13.422;2024-02-26T03:52:03;4.90;;;4.17;;
3491;SDS011;1760;52.480;13.422;2024-02-26T03:54:30;6.97;;;4.27;;
3491;SDS011;1760;52.480;13.422;2024-02-26T03:56:57;5.87;;;4.30;;
3491;SDS011;1760;52.480;13.422;2024-02-26T03:59:24;5.47;;;4.00;;
3491;SDS011;1760;52.480;13.422;2024-02-26T04:01:51;8.27;;;4.97;;
3491;SDS011;1760;52.480;13.422;2024-02-26T04:04:19;6.87;;;5.13;;
3491;SDS011;1760;52.480;13.422;2024-02-26T04:06:46;6.33;;;4.70;;
3491;SDS011;1760;52.480;13.422;2024-02-26T04:09:13;8.90;;;4.80;;
3491;SDS011;1760;52.480;13.422;2024-02-26T04:11:40;6.53;;;4.47;;
3491;SDS011;1760;52.480;13.422;2024-02-26T04:14:08;6.63;;;4.80;;
3491;SDS011;1760;52.480;13.422;2024-02-26T04:16:37;7.97;;;5.53;;
3491;SDS011;1760;52.480;13.422;2024-02-26T04:19:03;5.63;;;4.30;;
3491;SDS011;1760;52.480;13.422;2024-02-26T04:21:33;8.70;;;4.43;;
3491;SDS011;1760;52.480;13.422;2024-02-26T04:24:00;6.87;;;5.10;;
3491;SDS011;1760;52.480;13.422;2024-02-26T04:26:27;9.97;;;5.70;;
3491;SDS011;1760;52.480;13.422;2024-02-26T04:28:54;7.57;;;6.00;;
3491;SDS011;1760;52.480;13.422;2024-02-26T04:31:21;9.20;;;5.77;;
3491;SDS011;1760;52.480;13.422;2024-02-26T04:33:48;10.70;;;5.50;;
3491;SDS011;1760;52.480;13.422;2024-02-26T04:36:18;7.87;;;4.90;;
3491;SDS011;1760;52.480;13.422;2024-02-26T04:38:46;9.70;;;5.60;;
3491;SDS011;1760;52.480;13.422;2024-02-26T04:41:13;8.40;;;5.20;;
3491;SDS011;1760;52.480;13.422;2024-02-26T04:43:39;10.57;;;5.87;;
3491;SDS011;1760;52.480;13.422;2024-02-26T04:46:07;8.00;;;5.30;;
3491;SDS011;1760;52.480;13.422;2024-02-26T04:48:34;9.40;;;5.47;;
3491;SDS011;1760;52.480;13.422;2024-02-26T04:51:04;9.07;;;5.40;;
3491;SDS011;1760;52.480;13.422;2024-02-26T04:53:31;10.07;;;6.10;;
3491;SDS011;1760;52.480;13.422;2024-02-26T04:55:59;7.30;;;5.23;;
3491;SDS011;1760;52.480;13.422;2024-02-26T04:58:26;7.97;;;6.00;;
3491;SDS011;1760;52.480;13.422;2024-02-26T05:00:53;7.20;;;5.60;;
3491;SDS011;1760;52.480;13.422;2024-02-26T05:03:20;15.73;;;5.73;;
3491;SDS011;1760;52.480;13.422;2024-02-26T05:05:47;10.87;;;7.13;;
3491;SDS011;1760;52.480;13.422;2024-02-26T05:08:14;11.33;;;6.23;;
3491;SDS011;1760;52.480;13.422;2024-02-26T05:10:41;9.53;;;5.57;;
3491;SDS011;1760;52.480;13.422;2024-02-26T05:13:09;8.00;;;5.57;;
3491;SDS011;1760;52.480;13.422;2024-02-26T05:15:36;10.47;;;6.70;;
3491;SDS011;1760;52.480;13.422;2024-02-26T05:18:03;12.30;;;7.70;;
3491;SDS011;1760;52.480;13.422;2024-02-26T05:20:30;8.10;;;5.93;;
3491;SDS011;1760;52.480;13.422;2024-02-26T05:23:00;13.17;;;6.17;;
3491;SDS011;1760;52.480;13.422;2024-02-26T05:25:28;8.27;;;5.40;;
3491;SDS011;1760;52.480;13.422;2024-02-26T05:27:55;11.97;;;6.10;;
3491;SDS011;1760;52.480;13.422;2024-02-26T05:30:23;8.97;;;6.10;;
3491;SDS011;1760;52.480;13.422;2024-02-26T05:32:52;12.10;;;6.90;;
3491;SDS011;1760;52.480;13.422;2024-02-26T05:35:19;8.70;;;6.80;;
3491;SDS011;1760;52.480;13.422;2024-02-26T05:37:46;9.73;;;6.73;;
3491;SDS011;1760;52.480;13.422;2024-02-26T05:40:13;12.30;;;7.10;;
3491;SDS011;1760;52.480;13.422;2024-02-26T05:42:40;14.03;;;6.63;;
3491;SDS011;1760;52.480;13.422;2024-02-26T05:45:09;10.63;;;7.10;;
3491;SDS011;1760;52.480;13.422;2024-02-26T05:47:37;8.80;;;6.67;;
3491;SDS011;1760;52.480;13.422;2024-02-26T05:50:07;12.20;;;6.77;;
3491;SDS011;1760;52.480;13.422;2024-02-26T05:52:36;17.67;;;8.10;;
3491;SDS011;1760;52.480;13.422;2024-02-26T05:55:03;11.30;;;7.23;;
3491;SDS011;1760;52.480;13.422;2024-02-26T05:57:31;13.57;;;7.77;;
3491;SDS011;1760;52.480;13.422;2024-02-26T05:59:58;10.00;;;7.53;;
3491;SDS011;1760;52.480;13.422;2024-02-26T06:02:28;16.70;;;7.93;;
3491;SDS011;1760;52.480;13.422;2024-02-26T06:04:57;9.70;;;6.53;;
3491;SDS011;1760;52.480;13.422;2024-02-26T06:07:23;10.20;;;7.00;;
3491;SDS011;1760;52.480;13.422;2024-02-26T06:09:51;12.40;;;7.37;;
3491;SDS011;1760;52.480;13.422;2024-02-26T06:12:17;17.67;;;9.30;;
3491;SDS011;1760;52.480;13.422;2024-02-26T06:14:44;8.83;;;7.60;;
3491;SDS011;1760;52.480;13.422;2024-02-26T06:17:12;12.13;;;7.53;;
3491;SDS011;1760;52.480;13.422;2024-02-26T06:19:39;11.37;;;5.80;;
3491;SDS011;1760;52.480;13.422;2024-02-26T06:22:07;13.33;;;7.07;;
3491;SDS011;1760;52.480;13.422;2024-02-26T06:24:34;13.93;;;7.93;;
3491;SDS011;1760;52.480;13.422;2024-02-26T06:27:01;15.20;;;8.90;;
3491;SDS011;1760;52.480;13.422;2024-02-26T06:29:28;13.03;;;6.73;;
3491;SDS011;1760;52.480;13.422;2024-02-26T06:31:55;17.30;;;9.50;;
3491;SDS011;1760;52.480;13.422;2024-02-26T06:34:22;8.60;;;7.77;;
3491;SDS011;1760;52.480;13.422;2024-02-26T06:36:48;14.80;;;9.60;;
3491;SDS011;1760;52.480;13.422;2024-02-26T06:39:17;10.60;;;7.97;;
3491;SDS011;1760;52.480;13.422;2024-02-26T06:41:44;14.40;;;8.40;;
3491;SDS011;1760;52.480;13.422;2024-02-26T06:44:11;12.30;;;7.70;;
3491;SDS011;1760;52.480;13.422;2024-02-26T06:46:39;11.87;;;8.37;;
3491;SDS011;1760;52.480;13.422;2024-02-26T06:49:06;13.50;;;8.37;;
3491;SDS011;1760;52.480;13.422;2024-02-26T06:51:34;14.83;;;8.60;;
3491;SDS011;1760;52.480;13.422;2024-02-26T06:54:01;14.17;;;8.90;;
3491;SDS011;1760;52.480;13.422;2024-02-26T06:56:30;11.80;;;8.87;;
3491;SDS011;1760;52.480;13.422;2024-02-26T06:58:57;15.17;;;8.53;;
3491;SDS011;1760;52.480;13.422;2024-02-26T07:01:23;16.00;;;9.43;;
3491;SDS011;1760;52.480;13.422;2024-02-26T07:03:50;15.77;;;8.10;;
3491;SDS011;1760;52.480;13.422;2024-02-26T07:06:17;11.37;;;8.57;;
3491;SDS011;1760;52.480;13.422;2024-02-26T07:08:44;16.80;;;10.00;;
3491;SDS011;1760;52.480;13.422;2024-02-26T07:11:11;17.70;;;9.57;;
3491;SDS011;1760;52.480;13.422;2024-02-26T07:13:39;14.03;;;9.37;;
3491;SDS011;1760;52.480;13.422;2024-02-26T07:16:08;16.03;;;8.87;;
3491;SDS011;1760;52.480;13.422;2024-02-26T07:18:36;15.10;;;9.50;;
3491;SDS011;1760;52.480;13.422;2024-02-26T07:21:03;17.40;;;10.23;;
3491;SDS011;1760;52.480;13.422;2024-02-26T07:23:30;19.43;;;8.80;;
3491;SDS011;1760;52.480;13.422;2024-02-26T07:25:56;14.07;;;9.77;;
3491;SDS011;1760;52.480;13.422;2024-02-26T07:28:24;22.43;;;9.80;;
3491;SDS011;1760;52.480;13.422;2024-02-26T07:30:52;15.07;;;10.10;;
3491;SDS011;1760;52.480;13.422;2024-02-26T07:33:19;20.60;;;11.17;;
3491;SDS011;1760;52.480;13.422;2024-02-26T07:35:46;10.93;;;7.80;;
3491;SDS011;1760;52.480;13.422;2024-02-26T07:38:13;11.93;;;8.70;;
3491;SDS011;1760;52.480;13.422;2024-02-26T07:40:40;13.03;;;8.43;;
3491;SDS011;1760;52.480;13.422;2024-02-26T07:43:07;14.50;;;9.87;;
3491;SDS011;1760;52.480;13.422;2024-02-26T07:45:34;17.43;;;10.20;;
3491;SDS011;1760;52.480;13.422;2024-02-26T07:48:03;13.27;;;9.10;;
3491;SDS011;1760;52.480;13.422;2024-02-26T07:50:32;14.77;;;9.20;;
3491;SDS011;1760;52.480;13.422;2024-02-26T07:52:59;13.30;;;10.37;;
3491;SDS011;1760;52.480;13.422;2024-02-26T07:55:26;13.90;;;9.30;;
3491;SDS011;1760;52.480;13.422;2024-02-26T07:57:53;13.77;;;9.40;;
3491;SDS011;1760;52.480;13.422;2024-02-26T08:00:20;16.00;;;9.57;;
3491;SDS011;1760;52.480;13.422;2024-02-26T08:02:47;14.63;;;9.60;;
3491;SDS011;1760;52.480;13.422;2024-02-26T08:05:15;14.40;;;9.97;;
3491;SDS011;1760;52.480;13.422;2024-02-26T08:07:42;16.73;;;9.70;;
3491;SDS011;1760;52.480;13.422;2024-02-26T08:10:09;15.30;;;10.60;;
3491;SDS011;1760;52.480;13.422;2024-02-26T08:12:37;25.00;;;10.17;;
3491;SDS011;1760;52.480;13.422;2024-02-26T08:15:04;14.47;;;9.23;;
3491;SDS011;1760;52.480;13.422;2024-02-26T08:17:32;14.73;;;10.37;;
3491;SDS011;1760;52.480;13.422;2024-02-26T08:19:59;13.03;;;9.17;;
3491;SDS011;1760;52.480;13.422;2024-02-26T08:22:27;17.60;;;10.30;;
3491;SDS011;1760;52.480;13.422;2024-02-26T08:24:54;24.50;;;8.80;;
3491;SDS011;1760;52.480;13.422;2024-02-26T08:27:21;16.67;;;10.60;;
3491;SDS011;1760;52.480;13.422;2024-02-26T08:29:48;15.63;;;9.73;;
3491;SDS011;1760;52.480;13.422;2024-02-26T08:32:15;16.20;;;10.00;;
3491;SDS011;1760;52.480;13.422;2024-02-26T08:34:44;16.43;;;10.87;;
3491;SDS011;1760;52.480;13.422;2024-02-26T08:37:10;18.33;;;11.13;;
3491;SDS011;1760;52.480;13.422;2024-02-26T08:39:39;15.97;;;10.33;;
3491;SDS011;1760;52.480;13.422;2024-02-26T08:42:05;15.30;;;10.63;;
3491;SDS011;1760;52.480;13.422;2024-02-26T08:44:32;19.67;;;10.80;;
3491;SDS011;1760;52.480;13.422;2024-02-26T08:46:59;19.90;;;11.93;;
3491;SDS011;1760;52.480;13.422;2024-02-26T08:49:27;18.33;;;11.40;;
3491;SDS011;1760;52.480;13.422;2024-02-26T08:51:54;17.13;;;10.33;;
3491;SDS011;1760;52.480;13.422;2024-02-26T08:54:21;15.90;;;10.90;;
3491;SDS011;1760;52.480;13.422;2024-02-26T08:56:50;22.00;;;11.27;;
3491;SDS011;1760;52.480;13.422;2024-02-26T08:59:18;20.00;;;11.40;;
3491;SDS011;1760;52.480;13.422;2024-02-26T09:01:47;17.20;;;11.37;;
3491;SDS011;1760;52.480;13.422;2024-02-26T09:04:14;16.23;;;10.10;;
3491;SDS011;1760;52.480;13.422;2024-02-26T09:06:41;23.53;;;12.10;;
3491;SDS011;1760;52.480;13.422;2024-02-26T09:09:09;19.57;;;10.80;;
3491;SDS011;1760;52.480;13.422;2024-02-26T09:11:36;19.50;;;11.27;;
3491;SDS011;1760;52.480;13.422;2024-02-26T09:14:04;13.93;;;10.50;;
3491;SDS011;1760;52.480;13.422;2024-02-26T09:16:31;19.30;;;11.33;;
3491;SDS011;1760;52.480;13.422;2024-02-26T09:18:58;18.23;;;11.70;;
3491;SDS011;1760;52.480;13.422;2024-02-26T09:21:27;17.70;;;12.00;;
3491;SDS011;1760;52.480;13.422;2024-02-26T09:23:54;20.97;;;12.97;;
3491;SDS011;1760;52.480;13.422;2024-02-26T09:26:21;21.10;;;10.30;;
3491;SDS011;1760;52.480;13.422;2024-02-26T09:28:48;16.13;;;10.30;;
3491;SDS011;1760;52.480;13.422;2024-02-26T09:31:17;17.30;;;11.83;;
3491;SDS011;1760;52.480;13.422;2024-02-26T09:33:44;14.90;;;10.23;;
3491;SDS011;1760;52.480;13.422;2024-02-26T09:36:12;18.27;;;10.00;;
3491;SDS011;1760;52.480;13.422;2024-02-26T09:38:39;14.17;;;9.70;;
3491;SDS011;1760;52.480;13.422;2024-02-26T09:41:06;14.97;;;10.07;;
3491;SDS011;1760;52.480;13.422;2024-02-26T09:43:39;19.00;;;10.40;;
3491;SDS011;1760;52.480;13.422;2024-02-26T09:46:10;13.23;;;8.97;;
3491;SDS011;1760;52.480;13.422;2024-02-26T09:48:38;13.27;;;10.13;;
3491;SDS011;1760;52.480;13.422;2024-02-26T09:51:06;20.40;;;11.40;;
3491;SDS011;1760;52.480;13.422;2024-02-26T09:53:35;15.50;;;9.47;;
3491;SDS011;1760;52.480;13.422;2024-02-26T09:56:04;10.37;;;8.40;;
3491;SDS011;1760;52.480;13.422;2024-02-26T09:58:33;12.87;;;9.43;;
3491;SDS011;1760;52.480;13.422;2024-02-26T10:01:02;13.57;;;9.27;;
3491;SDS011;1760;52.480;13.422;2024-02-26T10:03:34;13.80;;;9.10;;
3491;SDS011;1760;52.480;13.422;2024-02-26T10:06:06;12.93;;;9.37;;
3491;SDS011;1760;52.480;13.422;2024-02-26T10:08:34;11.70;;;8.83;;
3491;SDS011;1760;52.480;13.422;2024-02-26T10:11:02;13.23;;;9.93;;
3491;SDS011;1760;52.480;13.422;2024-02-26T10:13:31;11.67;;;9.17;;
3491;SDS011;1760;52.480;13.422;2024-02-26T10:15:58;18.87;;;10.77;;
3491;SDS011;1760;52.480;13.422;2024-02-26T10:18:28;12.60;;;9.50;;
3491;SDS011;1760;52.480;13.422;2024-02-26T10:21:13;13.60;;;8.30;;
3491;SDS011;1760;52.480;13.422;2024-02-26T10:23:43;14.50;;;8.43;;
3491;SDS011;1760;52.480;13.422;2024-02-26T10:26:10;15.43;;;9.37;;
3491;SDS011;1760;52.480;13.422;2024-02-26T10:28:38;10.10;;;8.37;;
3491;SDS011;1760;52.480;13.422;2024-02-26T10:31:05;11.80;;;8.07;;
3491;SDS011;1760;52.480;13.422;2024-02-26T10:33:33;13.70;;;8.50;;
3491;SDS011;1760;52.480;13.422;2024-02-26T10:36:03;11.00;;;9.17;;
3491;SDS011;1760;52.480;13.422;2024-02-26T10:38:32;10.23;;;8.40;;
3491;SDS011;1760;52.480;13.422;2024-02-26T10:40:59;10.33;;;7.77;;
3491;SDS011;1760;52.480;13.422;2024-02-26T10:43:27;12.27;;;6.97;;
3491;SDS011;1760;52.480;13.422;2024-02-26T10:45:54;8.87;;;7.03;;
3491;SDS011;1760;52.480;13.422;2024-02-26T10:48:22;10.13;;;7.23;;
3491;SDS011;1760;52.480;13.422;2024-02-26T10:50:49;15.50;;;8.10;;
3491;SDS011;1760;52.480;13.422;2024-02-26T10:53:21;21.23;;;7.03;;
3491;SDS011;1760;52.480;13.422;2024-02-26T10:55:51;12.80;;;8.57;;
3491;SDS011;1760;52.480;13.422;2024-02-26T10:58:21;7.70;;;6.90;;
3491;SDS011;1760;52.480;13.422;2024-02-26T11:00:50;16.77;;;7.57;;
3491;SDS011;1760;52.480;13.422;2024-02-26T11:03:18;8.70;;;6.97;;
3491;SDS011;1760;52.480;13.422;2024-02-26T11:05:47;9.83;;;7.53;;
3491;SDS011;1760;52.480;13.422;2024-02-26T11:08:15;10.87;;;7.80;;
3491;SDS011;1760;52.480;13.422;2024-02-26T11:10:45;11.43;;;7.00;;
3491;SDS011;1760;52.480;13.422;2024-02-26T11:13:14;9.37;;;6.03;;
3491;SDS011;1760;52.480;13.422;2024-02-26T11:15:44;9.70;;;6.97;;
3491;SDS011;1760;52.480;13.422;2024-02-26T11:18:14;9.57;;;6.17;;
3491;SDS011;1760;52.480;13.422;2024-02-26T11:20:42;9.40;;;6.17;;
3491;SDS011;1760;52.480;13.422;2024-02-26T11:23:09;9.63;;;6.60;;
3491;SDS011;1760;52.480;13.422;2024-02-26T11:25:36;13.03;;;7.63;;
3491;SDS011;1760;52.480;13.422;2024-02-26T11:28:06;11.53;;;7.97;;
3491;SDS011;1760;52.480;13.422;2024-02-26T11:30:38;8.57;;;7.30;;
3491;SDS011;1760;52.480;13.422;2024-02-26T11:33:08;13.30;;;7.10;;
3491;SDS011;1760;52.480;13.422;2024-02-26T11:35:37;8.07;;;6.47;;
3491;SDS011;1760;52.480;13.422;2024-02-26T11:38:05;13.43;;;7.93;;
3491;SDS011;1760;52.480;13.422;2024-02-26T11:40:32;11.90;;;6.83;;
3491;SDS011;1760;52.480;13.422;2024-02-26T11:43:00;13.83;;;7.23;;
3491;SDS011;1760;52.480;13.422;2024-02-26T11:48:24;8.30;;;6.07;;
3491;SDS011;1760;52.480;13.422;2024-02-26T11:50:52;9.37;;;7.50;;
3491;SDS011;1760;52.480;13.422;2024-02-26T11:53:20;9.70;;;7.00;;
3491;SDS011;1760;52.480;13.422;2024-02-26T11:55:48;14.03;;;7.70;;
3491;SDS011;1760;52.480;13.422;2024-02-26T11:58:39;8.97;;;7.40;;
3491;SDS011;1760;52.480;13.422;2024-02-26T12:04:21;14.40;;;6.93;;
3491;SDS011;1760;52.480;13.422;2024-02-26T12:06:51;9.80;;;6.63;;
3491;SDS011;1760;52.480;13.422;2024-02-26T12:09:35;11.33;;;7.23;;
3491;SDS011;1760;52.480;13.422;2024-02-26T12:12:04;14.73;;;6.90;;
3491;SDS011;1760;52.480;13.422;2024-02-26T12:14:32;8.83;;;6.03;;
3491;SDS011;1760;52.480;13.422;2024-02-26T12:17:01;12.27;;;7.10;;
3491;SDS011;1760;52.480;13.422;2024-02-26T12:19:33;18.73;;;6.57;;
3491;SDS011;1760;52.480;13.422;2024-02-26T12:22:01;8.77;;;6.40;;
3491;SDS011;1760;52.480;13.422;2024-02-26T12:24:29;8.53;;;6.20;;
3491;SDS011;1760;52.480;13.422;2024-02-26T12:26:56;9.83;;;6.50;;
3491;SDS011;1760;52.480;13.422;2024-02-26T12:29:23;11.30;;;6.60;;
3491;SDS011;1760;52.480;13.422;2024-02-26T12:31:50;8.70;;;5.77;;
3491;SDS011;1760;52.480;13.422;2024-02-26T12:34:18;7.50;;;5.33;;
3491;SDS011;1760;52.480;13.422;2024-02-26T12:36:47;11.13;;;7.37;;
3491;SDS011;1760;52.480;13.422;2024-02-26T12:39:14;13.53;;;5.93;;
3491;SDS011;1760;52.480;13.422;2024-02-26T12:41:41;7.67;;;5.80;;
3491;SDS011;1760;52.480;13.422;2024-02-26T12:44:14;9.10;;;4.77;;
3491;SDS011;1760;52.480;13.422;2024-02-26T12:46:42;8.37;;;6.33;;
3491;SDS011;1760;52.480;13.422;2024-02-26T12:49:10;7.97;;;4.93;;
3491;SDS011;1760;52.480;13.422;2024-02-26T12:51:41;6.60;;;5.13;;
3491;SDS011;1760;52.480;13.422;2024-02-26T12:54:11;8.60;;;6.30;;
3491;SDS011;1760;52.480;13.422;2024-02-26T12:56:39;11.83;;;7.53;;
3491;SDS011;1760;52.480;13.422;2024-02-26T12:59:06;10.60;;;6.27;;
3491;SDS011;1760;52.480;13.422;2024-02-26T13:01:34;9.10;;;6.90;;
3491;SDS011;1760;52.480;13.422;2024-02-26T13:04:02;7.87;;;5.37;;
3491;SDS011;1760;52.480;13.422;2024-02-26T13:06:31;5.93;;;3.93;;
3491;SDS011;1760;52.480;13.422;2024-02-26T13:08:59;5.73;;;4.43;;
3491;SDS011;1760;52.480;13.422;2024-02-26T13:11:28;7.50;;;4.77;;
3491;SDS011;1760;52.480;13.422;2024-02-26T13:13:56;5.73;;;4.50;;
3491;SDS011;1760;52.480;13.422;2024-02-26T13:16:24;10.43;;;5.53;;
3491;SDS011;1760;52.480;13.422;2024-02-26T13:18:51;5.17;;;3.57;;
3491;SDS011;1760;52.480;13.422;2024-02-26T13:21:18;5.87;;;4.27;;
3491;SDS011;1760;52.480;13.422;2024-02-26T13:23:48;7.33;;;5.73;;
3491;SDS011;1760;52.480;13.422;2024-02-26T13:26:15;9.80;;;6.50;;
3491;SDS011;1760;52.480;13.422;2024-02-26T13:28:44;15.53;;;5.57;;
3491;SDS011;1760;52.480;13.422;2024-02-26T13:31:10;14.83;;;6.20;;
3491;SDS011;1760;52.480;13.422;2024-02-26T13:33:38;6.70;;;5.33;;
3491;SDS011;1760;52.480;13.422;2024-02-26T13:36:06;9.03;;;6.27;;
3491;SDS011;1760;52.480;13.422;2024-02-26T13:38:34;9.20;;;6.40;;
3491;SDS011;1760;52.480;13.422;2024-02-26T13:41:01;9.40;;;7.20;;
3491;SDS011;1760;52.480;13.422;2024-02-26T13:43:28;8.60;;;5.60;;
3491;SDS011;1760;52.480;13.422;2024-02-26T13:45:56;8.53;;;5.73;;
3491;SDS011;1760;52.480;13.422;2024-02-26T13:48:23;7.83;;;4.53;;
3491;SDS011;1760;52.480;13.422;2024-02-26T13:50:51;7.73;;;5.20;;
3491;SDS011;1760;52.480;13.422;2024-02-26T13:53:19;10.63;;;5.40;;
3491;SDS011;1760;52.480;13.422;2024-02-26T13:55:48;9.23;;;5.20;;
3491;SDS011;1760;52.480;13.422;2024-02-26T13:58:16;10.40;;;6.40;;
3491;SDS011;1760;52.480;13.422;2024-02-26T14:00:47;6.87;;;4.90;;
3491;SDS011;1760;52.480;13.422;2024-02-26T14:03:16;9.10;;;5.33;;
3491;SDS011;1760;52.480;13.422;2024-02-26T14:05:44;6.70;;;5.10;;
3491;SDS011;1760;52.480;13.422;2024-02-26T14:08:11;10.17;;;5.40;;
3491;SDS011;1760;52.480;13.422;2024-02-26T14:10:38;9.80;;;5.80;;
3491;SDS011;1760;52.480;13.422;2024-02-26T14:13:05;8.50;;;5.73;;
3491;SDS011;1760;52.480;13.422;2024-02-26T14:15:33;13.07;;;5.87;;
3491;SDS011;1760;52.480;13.422;2024-02-26T14:18:03;11.10;;;5.67;;
3491;SDS011;1760;52.480;13.422;2024-02-26T14:20:32;7.60;;;4.57;;
3491;SDS011;1760;52.480;13.422;2024-02-26T14:23:00;6.87;;;5.00;;
3491;SDS011;1760;52.480;13.422;2024-02-26T14:25:27;7.87;;;5.30;;
3491;SDS011;1760;52.480;13.422;2024-02-26T14:27:53;7.07;;;5.63;;
3491;SDS011;1760;52.480;13.422;2024-02-26T14:30:20;7.60;;;5.23;;
3491;SDS011;1760;52.480;13.422;2024-02-26T14:32:47;6.43;;;4.90;;
3491;SDS011;1760;52.480;13.422;2024-02-26T14:35:15;10.63;;;6.07;;
3491;SDS011;1760;52.480;13.422;2024-02-26T14:37:44;9.93;;;6.00;;
3491;SDS011;1760;52.480;13.422;2024-02-26T14:40:13;8.70;;;5.83;;
3491;SDS011;1760;52.480;13.422;2024-02-26T14:42:41;8.80;;;6.37;;
3491;SDS011;1760;52.480;13.422;2024-02-26T14:45:08;8.23;;;5.10;;
3491;SDS011;1760;52.480;13.422;2024-02-26T14:47:36;10.20;;;5.67;;
3491;SDS011;1760;52.480;13.422;2024-02-26T14:50:04;8.90;;;6.23;;
3491;SDS011;1760;52.480;13.422;2024-02-26T14:52:32;15.73;;;5.80;;
3491;SDS011;1760;52.480;13.422;2024-02-26T14:55:02;8.73;;;6.53;;
3491;SDS011;1760;52.480;13.422;2024-02-26T14:57:30;7.77;;;4.90;;
3491;SDS011;1760;52.480;13.422;2024-02-26T14:59:58;16.53;;;6.20;;
3491;SDS011;1760;52.480;13.422;2024-02-26T15:02:25;8.90;;;7.40;;
3491;SDS011;1760;52.480;13.422;2024-02-26T15:04:53;14.87;;;7.20;;